Time;durP1;ratioP1;P1;durP2;ratioP2;P2;SDS_P1;SDS_P2;PMS_P1;PMS_P2;Temp;Humidity;BMP_temperature;BMP_pressure;BME280_temperature;BME280_humidity;BME280_pressure;Samples;Min_cycle;Max_cycle;Signal;HPM_P1;HPM_P2
2022/09/09 00:00:33;;;;;;;26.63;12.87;;;;;;;17.49;68.38;100609.27;124068;1102;102298;-80
2022/09/09 00:03:32;;;;;;;26.13;12.10;;;;;;;17.44;68.37;100603.91;124234;1102;104504;-78
2022/09/09 00:06:09;;;;;;;24.33;12.60;;;;;;;17.42;68.70;100601.25;124105;1102;102790;-78
2022/09/09 00:08:52;;;;;;;24.47;12.87;;;;;;;17.40;68.53;100602.09;124095;1102;104752;-78
2022/09/09 00:11:30;;;;;;;25.87;12.70;;;;;;;17.39;68.91;100602.95;124075;1102;104274;-78
2022/09/09 00:14:11;;;;;;;23.07;12.40;;;;;;;17.38;68.92;100595.90;124917;1102;104169;-78
2022/09/09 00:16:48;;;;;;;23.67;12.63;;;;;;;17.35;68.94;100601.17;124895;1099;102119;-78
2022/09/09 00:19:29;;;;;;;24.87;12.77;;;;;;;17.36;69.02;100603.84;124307;1099;104673;-78
2022/09/09 00:22:15;;;;;;;23.90;12.73;;;;;;;17.38;69.16;100601.20;124348;1099;102803;-77
2022/09/09 00:24:49;;;;;;;24.50;12.50;;;;;;;17.40;68.99;100604.75;124242;1102;104165;-78
2022/09/09 00:27:29;;;;;;;22.93;12.10;;;;;;;17.39;68.94;100600.31;124287;1099;104187;-79
2022/09/09 00:30:13;;;;;;;25.80;12.80;;;;;;;17.36;69.12;100598.53;124217;1099;104178;-78
2022/09/09 00:32:46;;;;;;;23.70;12.20;;;;;;;17.35;69.42;100611.78;124255;1102;102283;-79
2022/09/09 00:35:23;;;;;;;22.63;11.43;;;;;;;17.35;69.50;100602.05;124247;1102;104118;-78
2022/09/09 00:37:58;;;;;;;25.63;12.53;;;;;;;17.35;68.74;100603.83;124989;1099;104243;-77
2022/09/09 00:40:35;;;;;;;25.60;13.10;;;;;;;17.32;69.57;100601.14;124227;1099;104241;-78
2022/09/09 00:43:22;;;;;;;22.13;11.53;;;;;;;17.28;69.42;100601.98;124267;1099;104258;-78
2022/09/09 00:46:11;;;;;;;23.97;11.83;;;;;;;17.22;69.78;100611.66;124272;1102;104268;-77
2022/09/09 00:48:52;;;;;;;25.30;12.37;;;;;;;17.18;69.54;100609.84;124202;1099;104228;-78
2022/09/09 00:51:36;;;;;;;22.60;12.50;;;;;;;17.15;69.57;100608.92;124226;1099;109439;-79
2022/09/09 00:54:29;;;;;;;24.53;12.13;;;;;;;17.13;69.97;100615.98;124198;1102;104198;-78
2022/09/09 00:57:12;;;;;;;24.67;12.83;;;;;;;17.13;69.60;100616.86;124274;1099;104242;-77
2022/09/09 00:59:51;;;;;;;23.33;11.90;;;;;;;17.06;70.22;100615.00;124168;1102;104201;-78
2022/09/09 01:02:40;;;;;;;25.57;11.77;;;;;;;17.05;69.90;100616.78;124203;1099;104217;-77
2022/09/09 01:05:21;;;;;;;23.30;12.83;;;;;;;17.03;70.10;100610.58;124229;1099;104294;-77
2022/09/09 01:07:53;;;;;;;24.73;11.93;;;;;;;17.04;70.02;100614.11;124198;1102;104232;-78
2022/09/09 01:10:32;;;;;;;24.90;12.70;;;;;;;17.03;70.63;100618.53;124236;1100;104163;-78
2022/09/09 01:13:14;;;;;;;22.50;12.57;;;;;;;17.01;70.62;100614.95;124182;1102;104063;-78
2022/09/09 01:15:47;;;;;;;27.40;13.10;;;;;;;16.98;70.23;100621.99;124303;1099;101905;-78
2022/09/09 01:18:22;;;;;;;26.07;12.80;;;;;;;16.94;70.56;100614.87;124214;1099;101828;-77
2022/09/09 01:21:02;;;;;;;25.25;12.55;;;;;;;16.92;70.53;100609.55;124218;1099;104335;-78
2022/09/09 01:23:48;;;;;;;24.10;12.37;;;;;;;16.93;70.96;100618.41;124236;1099;104211;-78
2022/09/09 01:26:44;;;;;;;22.23;11.63;;;;;;;16.92;70.96;100611.31;124145;1099;104406;-78
2022/09/09 01:29:27;;;;;;;26.47;12.47;;;;;;;16.92;70.54;100611.31;124310;1099;104166;-78
2022/09/09 01:32:01;;;;;;;23.30;11.77;;;;;;;16.95;70.78;100606.05;124216;1099;104341;-78
2022/09/09 01:34:37;;;;;;;23.30;12.53;;;;;;;16.95;70.82;100606.05;124195;1097;104326;-77
2022/09/09 01:37:11;;;;;;;26.17;11.73;;;;;;;16.91;71.37;100604.23;124248;1099;104217;-77
2022/09/09 01:39:45;;;;;;;25.07;11.87;;;;;;;16.89;70.84;100609.52;124175;1102;104232;-78
2022/09/09 01:42:20;;;;;;;25.27;12.23;;;;;;;16.89;71.11;100607.77;124221;1099;104205;-78
2022/09/09 01:44:51;;;;;;;23.40;12.33;;;;;;;16.91;71.20;100606.87;124275;1102;102934;-77
2022/09/09 01:47:22;;;;;;;24.13;12.60;;;;;;;16.90;71.38;100611.30;124795;1099;104187;-78
2022/09/09 01:50:15;;;;;;;24.33;12.53;;;;;;;16.86;71.82;100613.03;124257;1102;104242;-79
2022/09/09 01:52:51;;;;;;;24.83;12.50;;;;;;;16.84;71.47;100614.76;124171;1099;107031;-77
2022/09/09 01:55:32;;;;;;;25.30;12.27;;;;;;;16.82;71.81;100611.17;124250;1102;104252;-78
2022/09/09 01:58:20;;;;;;;26.80;12.93;;;;;;;16.80;71.97;100618.23;124208;1099;104169;-78
2022/09/09 02:01:03;;;;;;;22.25;11.55;;;;;;;16.76;71.28;100616.41;124189;1102;104150;-78
2022/09/09 02:03:36;;;;;;;26.37;12.60;;;;;;;16.76;72.15;100616.41;124217;1102;104249;-78
2022/09/09 02:06:27;;;;;;;25.65;13.05;;;;;;;16.74;71.96;100619.92;124160;1102;102158;-77
2022/09/09 02:09:04;;;;;;;28.77;13.07;;;;;;;16.72;71.56;100633.16;124299;1099;104127;-77
2022/09/09 02:11:36;;;;;;;27.27;13.20;;;;;;;16.70;71.52;100624.27;124253;1102;104178;-78
2022/09/09 02:14:17;;;;;;;27.80;13.37;;;;;;;16.69;71.65;100630.47;124198;1102;102775;-78
2022/09/09 02:16:55;;;;;;;27.37;14.07;;;;;;;16.67;72.45;100622.49;124233;1102;102242;-78
2022/09/09 02:19:33;;;;;;;27.47;14.90;;;;;;;16.65;71.76;100626.86;124220;1102;104041;-78
2022/09/09 02:22:12;;;;;;;26.10;14.73;;;;;;;16.62;71.90;100621.52;124244;1099;104169;-77
2022/09/09 02:24:44;;;;;;;27.27;14.43;;;;;;;16.60;72.11;100625.92;124244;1102;104229;-77
2022/09/09 02:27:26;;;;;;;27.20;15.70;;;;;;;16.61;72.75;100621.50;124255;1099;102983;-77
2022/09/09 02:30:01;;;;;;;26.87;14.77;;;;;;;16.62;72.46;100618.88;124198;1102;104166;-77
2022/09/09 02:32:49;;;;;;;32.13;15.43;;;;;;;16.62;72.09;100620.64;125028;1102;104361;-77
2022/09/09 02:35:26;;;;;;;28.93;14.50;;;;;;;16.60;73.07;100628.58;124247;1102;104169;-78
2022/09/09 02:38:00;;;;;;;26.97;13.83;;;;;;;16.59;72.79;100617.95;124240;1102;104245;-78
2022/09/09 02:40:32;;;;;;;32.70;14.57;;;;;;;16.58;73.13;100622.38;124247;1102;102213;-78
2022/09/09 02:43:04;;;;;;;;;;;;;;;16.58;72.05;100621.46;124202;1100;102962;-78
2022/09/09 02:45:43;;;;;;;29.07;13.63;;;;;;;16.56;72.38;100620.56;124231;1102;104237;-77
2022/09/09 02:48:26;;;;;;;28.93;14.33;;;;;;;16.53;72.36;100624.05;124220;1102;104353;-78
2022/09/09 02:51:09;;;;;;;25.50;14.05;;;;;;;16.52;73.35;100620.52;124250;1102;101816;-78
2022/09/09 02:53:48;;;;;;;27.15;13.90;;;;;;;16.54;72.72;100612.59;124267;1099;102825;-78
2022/09/09 02:56:22;;;;;;;25.23;13.40;;;;;;;16.56;73.43;100623.21;124279;1102;104334;-78
2022/09/09 02:58:55;;;;;;;30.10;14.10;;;;;;;16.57;73.41;100611.76;124984;1102;102341;-78
2022/09/09 03:01:27;;;;;;;26.62;14.15;;;;;;;16.55;72.73;100619.69;124237;1100;104242;-78
2022/09/09 03:03:59;;;;;;;29.87;13.73;;;;;;;16.56;72.76;100621.44;124187;1102;110889;-78
2022/09/09 03:06:31;;;;;;;25.70;13.23;;;;;;;16.53;72.79;100621.41;124986;1102;104163;-78
2022/09/09 03:09:10;;;;;;;31.70;13.47;;;;;;;16.50;73.26;100624.92;124230;1103;104245;-78
2022/09/09 03:11:41;;;;;;;28.53;13.33;;;;;;;16.46;73.48;100628.38;124187;1102;104452;-78
2022/09/09 03:14:13;;;;;;;27.10;12.83;;;;;;;16.45;73.80;100638.95;124200;1102;104291;-78
2022/09/09 03:16:46;;;;;;;27.00;13.83;;;;;;;16.44;73.07;100640.73;124188;1102;104293;-78
2022/09/09 03:19:18;;;;;;;25.93;13.70;;;;;;;16.42;73.08;100633.62;124273;1099;102785;-79
2022/09/09 03:21:49;;;;;;;27.63;13.60;;;;;;;16.42;73.09;100629.20;124247;1102;104261;-78
2022/09/09 03:24:22;;;;;;;26.73;14.53;;;;;;;16.41;73.71;100630.09;124209;1099;102483;-79
2022/09/09 03:26:57;;;;;;;29.13;14.07;;;;;;;16.41;74.02;100632.73;124264;1102;104318;-79
2022/09/09 03:29:32;;;;;;;30.47;13.90;;;;;;;16.43;73.46;100638.94;124261;1102;102886;-79
2022/09/09 03:32:05;;;;;;;27.52;14.20;;;;;;;16.43;73.80;100644.23;125014;1102;102344;-79
2022/09/09 03:34:40;;;;;;;24.90;12.87;;;;;;;16.44;74.05;100631.88;125017;1099;119009;-78
2022/09/09 03:37:11;;;;;;;25.47;12.37;;;;;;;16.43;73.83;100636.29;124996;1102;104223;-79
2022/09/09 03:39:44;;;;;;;26.20;13.07;;;;;;;16.41;73.33;100643.33;124963;1102;104159;-79
2022/09/09 03:42:18;;;;;;;27.03;12.23;;;;;;;16.36;73.21;100655.59;124999;1102;104329;-79
2022/09/09 03:44:51;;;;;;;25.72;12.63;;;;;;;16.33;73.39;100647.61;125079;1102;102098;-78
2022/09/09 03:47:25;;;;;;;25.40;12.73;;;;;;;16.31;73.71;100650.27;124397;1102;102831;-78
2022/09/09 03:50:00;;;;;;;24.83;12.43;;;;;;;16.28;74.01;100646.66;125785;1099;104162;-78
2022/09/09 03:52:31;;;;;;;25.87;12.20;;;;;;;16.27;73.48;100650.20;124399;1102;104211;-78
2022/09/09 03:55:03;;;;;;;30.53;11.73;;;;;;;16.26;74.01;100649.28;124389;1099;104225;-78
2022/09/09 03:57:36;;;;;;;28.67;12.47;;;;;;;16.25;73.27;100654.55;124319;1099;105826;-78
2022/09/09 04:00:09;;;;;;;28.33;13.00;;;;;;;16.25;73.74;100654.55;125147;1102;104288;-78
2022/09/09 04:02:55;;;;;;;25.23;12.40;;;;;;;16.26;73.42;100659.88;124401;1102;101975;-78
2022/09/09 04:05:27;;;;;;;32.27;14.13;;;;;;;16.32;73.49;100656.44;124374;1099;102787;-78
2022/09/09 04:07:58;;;;;;;31.83;14.67;;;;;;;16.35;73.48;100646.77;124250;1098;104194;-77
2022/09/09 04:10:29;;;;;;;29.17;13.57;;;;;;;16.39;74.23;100650.34;124374;1099;102356;-78
2022/09/09 04:13:01;;;;;;;33.17;13.63;;;;;;;16.43;74.05;100657.48;126159;1098;104242;-77
2022/09/09 04:15:34;;;;;;;31.97;14.20;;;;;;;16.46;74.35;100652.22;124392;1102;107514;-78
2022/09/09 04:18:06;;;;;;;26.90;14.00;;;;;;;16.51;74.28;100657.59;124413;1102;103296;-78
2022/09/09 04:20:37;;;;;;;31.10;14.53;;;;;;;16.54;73.83;100650.56;124432;1102;104227;-78
2022/09/09 04:23:09;;;;;;;31.07;14.40;;;;;;;16.58;73.69;100648.86;124838;1099;104159;-77
2022/09/09 04:25:43;;;;;;;34.17;14.83;;;;;;;16.64;74.01;100648.04;125122;1102;102314;-79
2022/09/09 04:28:14;;;;;;;46.77;15.77;;;;;;;16.68;73.58;100652.52;124399;1102;104188;-78
2022/09/09 04:30:46;;;;;;;33.43;14.43;;;;;;;16.71;73.44;100642.84;124346;1102;101995;-78
2022/09/09 04:33:18;;;;;;;32.27;14.83;;;;;;;16.74;73.47;100642.00;125009;1099;102082;-78
2022/09/09 04:35:53;;;;;;;43.43;14.90;;;;;;;16.77;73.89;100647.34;125076;1099;104362;-78
2022/09/09 04:38:26;;;;;;;37.00;14.83;;;;;;;16.81;73.60;100643.87;124411;1102;104427;-78
2022/09/09 04:40:59;;;;;;;33.87;15.27;;;;;;;16.85;73.39;100639.48;124984;1102;104188;-78
2022/09/09 04:43:31;;;;;;;33.93;15.57;;;;;;;16.90;73.82;100640.45;124380;1102;104229;-78
2022/09/09 04:46:07;;;;;;;34.78;16.20;;;;;;;16.93;73.30;100629.02;124352;1102;104168;-78
2022/09/09 04:48:39;;;;;;;29.23;15.07;;;;;;;16.96;73.67;100642.30;124448;1102;104271;-78
2022/09/09 04:51:15;;;;;;;33.02;14.47;;;;;;;16.98;72.70;100643.20;124414;1102;104236;-78
2022/09/09 04:53:50;;;;;;;28.17;14.80;;;;;;;16.98;72.92;100649.38;124293;1102;104281;-77
2022/09/09 04:56:26;;;;;;;28.87;14.23;;;;;;;17.04;72.83;100652.10;124200;1102;104261;-77
2022/09/09 04:59:02;;;;;;;28.60;13.23;;;;;;;17.12;72.99;100648.66;124206;1102;102145;-77
2022/09/09 05:01:43;;;;;;;32.27;14.13;;;;;;;17.17;73.15;100646.94;124253;1102;102447;-78
2022/09/09 05:04:16;;;;;;;;;;;;;;;17.22;72.21;100648.78;124293;1099;104143;-79
2022/09/09 05:06:49;;;;;;;27.23;13.87;;;;;;;17.24;71.85;100639.07;124327;1102;108057;-78
2022/09/09 05:09:26;;;;;;;27.87;14.30;;;;;;;17.26;72.02;100644.39;124285;1099;104281;-78
2022/09/09 05:11:58;;;;;;;25.67;14.30;;;;;;;17.36;72.60;100645.41;124179;1102;102498;-78
2022/09/09 05:14:36;;;;;;;28.13;15.07;;;;;;;17.42;72.27;100643.69;124367;1099;104233;-79
2022/09/09 05:17:08;;;;;;;28.90;15.35;;;;;;;17.52;71.64;100646.44;124236;1102;117795;-77
2022/09/09 05:19:42;;;;;;;28.27;14.03;;;;;;;17.58;72.09;100636.76;124383;1102;102970;-78
2022/09/09 05:22:20;;;;;;;27.33;14.43;;;;;;;17.67;71.98;100637.70;124347;1102;102788;-79
2022/09/09 05:24:53;;;;;;;28.97;14.43;;;;;;;17.74;71.96;100636.89;125000;1100;104056;-79
2022/09/09 05:27:27;;;;;;;26.73;14.03;;;;;;;17.79;71.82;100636.06;125003;1102;104162;-79
2022/09/09 05:30:04;;;;;;;24.40;13.73;;;;;;;17.83;71.42;100634.31;125257;1099;102167;-79
2022/09/09 05:32:36;;;;;;;27.73;13.77;;;;;;;17.81;71.20;100628.13;125143;1099;102158;-80
2022/09/09 05:35:09;;;;;;;27.87;13.20;;;;;;;17.77;71.37;100616.56;125113;1102;104101;-80
2022/09/09 05:37:46;;;;;;;26.55;13.20;;;;;;;17.86;71.60;100623.73;125589;1099;109461;-79
2022/09/09 05:40:21;;;;;;;43.50;15.77;;;;;;;17.91;71.30;100629.11;125188;1102;104217;-78
2022/09/09 05:42:56;;;;;;;33.25;18.00;;;;;;;17.95;71.32;100630.88;125082;1102;104262;-80
2022/09/09 05:45:27;;;;;;;35.77;19.77;;;;;;;18.00;71.28;100634.48;125060;1102;104274;-79
2022/09/09 05:48:01;;;;;;;32.97;21.87;;;;;;;18.08;71.19;100634.55;124645;1102;104708;-81
2022/09/09 05:50:34;;;;;;;30.90;20.27;;;;;;;18.15;71.20;100628.38;124624;1100;102554;-80
2022/09/09 05:53:16;;;;;;;30.20;16.63;;;;;;;18.21;71.54;100615.14;124612;1099;104246;-77
2022/09/09 05:55:48;;;;;;;29.43;16.77;;;;;;;18.27;71.14;100622.27;124554;1102;104185;-78
2022/09/09 05:58:27;;;;;;;28.77;15.20;;;;;;;18.35;71.29;100624.97;124412;1102;104153;-78
2022/09/09 06:01:06;;;;;;;35.13;16.07;;;;;;;18.38;71.09;100622.33;125755;1099;104300;-79
2022/09/09 06:03:42;;;;;;;26.47;14.17;;;;;;;18.44;71.52;100630.34;126126;1099;101773;-79
2022/09/09 06:06:21;;;;;;;25.23;15.03;;;;;;;18.48;71.00;100627.70;125904;1102;101859;-79
2022/09/09 06:08:57;;;;;;;26.70;14.77;;;;;;;18.51;71.25;100632.12;126233;1099;103370;-79
2022/09/09 06:11:35;;;;;;;25.60;13.93;;;;;;;18.56;71.17;100640.13;125045;1099;103041;-78
2022/09/09 06:14:17;;;;;;;24.23;12.93;;;;;;;18.61;71.17;100639.28;125150;1102;102768;-79
2022/09/09 06:16:55;;;;;;;26.63;13.60;;;;;;;18.69;71.08;100632.22;125169;1099;101782;-78
2022/09/09 06:19:30;;;;;;;25.50;13.13;;;;;;;18.79;70.72;100641.14;125215;1100;102025;-79
2022/09/09 06:22:11;;;;;;;26.90;12.70;;;;;;;18.84;70.90;100631.44;125654;1099;104195;-76
2022/09/09 06:24:53;;;;;;;25.10;12.50;;;;;;;18.91;70.91;100634.13;125868;1099;104198;-77
2022/09/09 06:27:28;;;;;;;21.57;12.10;;;;;;;19.00;71.13;100634.16;125892;1099;104162;-77
2022/09/09 06:30:38;;;;;;;26.70;11.53;;;;;;;19.08;70.73;100635.06;125729;1099;101714;-78
2022/09/09 06:33:25;;;;;;;22.10;11.20;;;;;;;19.20;70.60;100639.54;126363;1099;104287;-77
2022/09/09 06:36:03;;;;;;;21.67;11.00;;;;;;;19.33;70.72;100632.47;125514;1099;104192;-77
2022/09/09 06:38:42;;;;;;;25.77;11.43;;;;;;;19.48;70.86;100628.95;126716;1098;102140;-77
2022/09/09 06:41:25;;;;;;;25.60;11.73;;;;;;;19.58;70.73;100625.39;125726;1099;102787;-77
2022/09/09 06:44:03;;;;;;;27.03;11.93;;;;;;;19.66;70.80;100634.27;127175;1099;101650;-77
2022/09/09 06:46:48;;;;;;;21.07;10.67;;;;;;;19.82;70.89;100634.30;125637;1098;104223;-77
2022/09/09 06:49:50;;;;;;;24.20;10.70;;;;;;;19.97;70.90;100634.30;125860;1099;117899;-77
2022/09/09 06:52:40;;;;;;;21.87;10.43;;;;;;;20.14;70.36;100626.29;126137;1099;101733;-78
2022/09/09 06:55:17;;;;;;;21.63;10.57;;;;;;;20.30;70.23;100627.13;126026;1099;102330;-77
2022/09/09 06:57:54;;;;;;;23.87;10.20;;;;;;;20.44;70.62;100635.09;125798;1102;101802;-77
2022/09/09 07:00:50;;;;;;;20.67;9.33;;;;;;;20.59;69.88;100626.19;127605;1098;101505;-78
2022/09/09 07:03:47;;;;;;;18.77;9.30;;;;;;;20.71;69.89;100620.84;125590;1102;104280;-78
2022/09/09 07:06:31;;;;;;;18.60;9.00;;;;;;;20.81;69.87;100624.34;126769;1098;104080;-78
2022/09/09 07:09:15;;;;;;;20.00;9.33;;;;;;;20.85;69.39;100619.87;125682;1102;105413;-78
2022/09/09 07:19:41;;;;;;;19.27;8.93;;;;;;;21.09;68.92;100635.76;126335;1099;102300;-79
2022/09/09 07:22:25;;;;;;;18.67;8.20;;;;;;;21.16;68.47;100634.84;126142;1102;101584;-79
2022/09/09 07:25:16;;;;;;;18.97;8.60;;;;;;;21.25;67.83;100635.67;125597;1101;102036;-79
2022/09/09 07:28:08;;;;;;;19.20;8.73;;;;;;;21.36;68.03;100645.40;125708;1099;102117;-78
2022/09/09 07:31:02;;;;;;;21.27;8.60;;;;;;;21.47;68.23;100645.33;126116;1099;102448;-78
2022/09/09 07:33:49;;;;;;;19.13;8.20;;;;;;;21.65;67.39;100651.45;126116;1102;101937;-79
2022/09/09 07:36:49;;;;;;;15.65;7.85;;;;;;;21.77;67.89;100643.35;125907;1099;101911;-79
2022/09/09 07:39:32;;;;;;;22.17;8.53;;;;;;;21.93;68.07;100637.88;125608;1102;104194;-78
2022/09/09 07:42:05;;;;;;;18.67;8.00;;;;;;;22.07;67.46;100638.63;125334;1098;104249;-78
2022/09/09 07:44:39;;;;;;;17.73;8.50;;;;;;;22.18;67.32;100631.39;125304;1099;104369;-78
2022/09/09 07:47:26;;;;;;;18.53;7.87;;;;;;;22.29;66.50;100619.71;125157;1099;104268;-78
2022/09/09 07:50:18;;;;;;;18.07;6.95;;;;;;;22.47;66.19;100616.87;125651;1102;102101;-78
2022/09/09 07:53:19;;;;;;;20.67;6.87;;;;;;;22.73;66.42;100612.98;125896;1102;104347;-79
2022/09/09 07:56:25;;;;;;;14.77;6.50;;;;;;;22.93;65.35;100608.25;126286;1102;102733;-79
2022/09/09 08:03:21;;;;;;;20.70;6.87;;;;;;;23.30;64.98;100615.79;126263;1102;118000;-79
2022/09/09 08:09:32;;;;;;;14.23;6.10;;;;;;;23.61;63.73;100614.44;126309;1102;101618;-79
2022/09/09 08:16:29;;;;;;;14.97;6.17;;;;;;;23.89;63.04;100601.48;126263;1102;101284;-79
2022/09/09 08:19:11;;;;;;;16.50;5.87;;;;;;;23.93;62.90;100594.27;126255;1105;101928;-79
2022/09/09 08:25:25;;;;;;;11.27;6.03;;;;;;;24.08;61.82;100593.98;126122;1102;101742;-79
2022/09/09 08:31:35;;;;;;;14.80;6.00;;;;;;;24.29;61.34;100595.36;126409;1102;104166;-79
2022/09/09 08:34:56;;;;;;;17.80;5.93;;;;;;;24.48;61.43;100585.17;125835;1102;118737;-78
2022/09/09 08:45:00;;;;;;;10.90;5.33;;;;;;;25.17;59.40;100565.81;125458;1102;110455;-79
2022/09/09 08:48:13;;;;;;;14.00;5.10;;;;;;;25.38;58.69;100559.06;125867;1099;104307;-79
2022/09/09 08:50:51;;;;;;;11.87;4.60;;;;;;;25.45;57.31;100555.31;125101;1102;103178;-79
2022/09/09 08:53:58;;;;;;;15.90;4.90;;;;;;;25.60;57.41;100565.67;126546;1098;102246;-79
2022/09/09 08:56:35;;;;;;;12.13;4.70;;;;;;;25.83;57.18;100554.30;125539;1102;104187;-78
2022/09/09 08:59:12;;;;;;;9.70;5.17;;;;;;;26.01;56.49;100550.27;126072;1098;102251;-79
2022/09/09 09:05:30;;;;;;;7.60;4.20;;;;;;;26.41;54.65;100540.17;125848;1102;101912;-79
2022/09/09 09:08:46;;;;;;;10.82;4.50;;;;;;;26.48;54.63;100528.31;127094;1100;101567;-79
2022/09/09 09:11:43;;;;;;;11.70;4.93;;;;;;;26.49;52.94;100532.78;126261;1101;101809;-79
2022/09/09 09:14:30;;;;;;;7.03;3.97;;;;;;;26.67;53.06;100519.72;126240;1101;101353;-79
2022/09/09 09:17:15;;;;;;;8.80;4.40;;;;;;;26.70;51.55;100525.88;125825;1099;104162;-79
2022/09/09 09:19:53;;;;;;;10.20;4.30;;;;;;;26.83;52.14;100518.33;125797;1099;102176;-80
2022/09/09 09:22:43;;;;;;;8.60;4.07;;;;;;;26.96;52.08;100516.13;126238;1099;102177;-78
2022/09/09 09:25:28;;;;;;;9.10;4.07;;;;;;;27.01;50.68;100513.28;126073;1099;102311;-79
2022/09/09 09:31:37;;;;;;;13.50;4.53;;;;;;;27.08;50.79;100501.36;126235;1100;101576;-78
2022/09/09 09:34:17;;;;;;;8.97;4.33;;;;;;;27.02;49.59;100501.56;125136;1102;104297;-78
2022/09/09 09:37:19;;;;;;;6.63;4.37;;;;;;;27.09;49.41;100495.05;125005;1099;104326;-77
2022/09/09 09:39:54;;;;;;;6.73;3.93;;;;;;;27.14;49.74;100490.38;125070;1099;104281;-79
2022/09/09 09:42:36;;;;;;;10.17;4.60;;;;;;;27.09;49.47;100492.36;125534;1102;104191;-79
2022/09/09 09:45:35;;;;;;;9.37;4.40;;;;;;;27.15;49.31;100496.67;126152;1099;101821;-78
2022/09/09 09:48:15;;;;;;;9.33;4.43;;;;;;;27.21;48.22;100497.34;126122;1099;101910;-78
2022/09/09 09:50:53;;;;;;;7.97;4.03;;;;;;;27.26;47.75;100505.27;127190;1100;101724;-78
2022/09/09 09:53:44;;;;;;;11.13;4.23;;;;;;;27.32;47.01;100504.23;125489;1102;104150;-77
2022/09/09 09:56:32;;;;;;;7.73;3.93;;;;;;;27.36;47.09;100505.87;125039;1102;104201;-76
2022/09/09 09:59:21;;;;;;;11.63;4.13;;;;;;;27.37;46.86;100499.55;125546;1100;102788;-78
2022/09/09 10:02:17;;;;;;;6.13;4.03;;;;;;;27.41;46.75;100498.50;125415;1102;105359;-78
2022/09/09 10:05:02;;;;;;;11.88;3.95;;;;;;;27.39;46.12;100497.67;126097;1099;104117;-80
2022/09/09 10:07:37;;;;;;;10.73;4.20;;;;;;;27.31;45.72;100497.94;125613;1102;104294;-80
2022/09/09 10:10:30;;;;;;;9.33;3.92;;;;;;;27.32;46.27;100493.45;125832;1102;101689;-80
2022/09/09 10:17:16;;;;;;;8.60;4.00;;;;;;;27.29;45.93;100504.30;125474;1102;102287;-80
2022/09/09 10:20:19;;;;;;;10.07;4.17;;;;;;;27.25;45.84;100507.09;125868;1099;102083;-81
2022/09/09 10:23:19;;;;;;;8.23;4.25;;;;;;;27.24;45.60;100516.09;126076;1102;101601;-79
2022/09/09 10:26:25;;;;;;;9.83;4.37;;;;;;;27.18;45.54;100505.52;125835;1102;104230;-80
2022/09/09 10:29:22;;;;;;;14.67;4.97;;;;;;;27.23;45.34;100505.37;125454;1099;104185;-79
2022/09/09 10:32:26;;;;;;;7.55;4.00;;;;;;;27.25;45.14;100508.89;126179;1098;104287;-78
2022/09/09 10:35:30;;;;;;;10.40;4.15;;;;;;;27.21;44.94;100510.81;125524;1099;103222;-79
2022/09/09 10:38:23;;;;;;;10.40;4.33;;;;;;;27.12;44.76;100503.03;125656;1102;104163;-80
2022/09/09 10:41:20;;;;;;;8.30;4.40;;;;;;;27.04;44.02;100505.97;126162;1100;104254;-80
2022/09/09 10:44:18;;;;;;;8.27;4.03;;;;;;;27.00;44.81;100498.91;125123;1099;104166;-80
2022/09/09 10:47:07;;;;;;;9.07;4.10;;;;;;;26.95;44.22;100491.94;125062;1102;102353;-80
2022/09/09 10:50:00;;;;;;;11.13;4.30;;;;;;;26.96;43.71;100497.27;125613;1099;104237;-79
2022/09/09 10:55:38;;;;;;;7.47;4.23;;;;;;;26.94;44.24;100492.86;125104;1102;104261;-78
2022/09/09 10:58:25;;;;;;;9.57;4.07;;;;;;;26.95;44.59;100491.94;125089;1099;102234;-79
2022/09/09 11:01:20;;;;;;;10.63;4.93;;;;;;;26.97;44.16;100487.38;125935;1099;118901;-79
2022/09/09 11:04:19;;;;;;;7.47;4.33;;;;;;;27.01;44.39;100489.05;125181;1102;104197;-79
2022/09/09 11:07:08;;;;;;;;;;;;;;;;;;;;;
2022/09/09 11:10:02;;;;;;;9.10;4.40;;;;;;;27.01;44.56;100489.92;125043;1099;104219;-80
2022/09/09 11:13:12;;;;;;;9.30;4.07;;;;;;;26.97;43.87;100488.24;126238;1099;101590;-79
2022/09/09 11:16:04;;;;;;;7.90;4.40;;;;;;;26.90;43.54;100482.19;125620;1102;104221;-80
2022/09/09 11:18:42;;;;;;;7.40;4.42;;;;;;;26.87;43.99;100493.05;125567;1100;104258;-80
2022/09/09 11:21:28;;;;;;;10.87;4.60;;;;;;;26.84;44.21;100481.52;126258;1100;102088;-79
2022/09/09 11:24:24;;;;;;;8.60;4.30;;;;;;;26.77;43.68;100486.22;125530;1102;102445;-79
2022/09/09 11:27:09;;;;;;;8.50;4.30;;;;;;;26.75;44.04;100488.06;125603;1102;101867;-79
2022/09/09 11:33:41;;;;;;;15.63;5.33;;;;;;;26.71;44.04;100483.72;126191;1098;104197;-79
2022/09/09 11:36:52;;;;;;;9.70;4.90;;;;;;;26.65;43.66;100476.72;125074;1102;104179;-79
2022/09/09 11:39:47;;;;;;;12.50;4.57;;;;;;;26.55;43.11;100475.19;124923;1102;104382;-79
2022/09/09 11:42:27;;;;;;;10.18;4.58;;;;;;;26.44;42.95;100471.96;125155;1102;102211;-80
2022/09/09 11:45:25;;;;;;;7.27;4.50;;;;;;;26.34;42.81;100472.23;125129;1102;104971;-78
2022/09/09 11:48:05;;;;;;;8.47;4.50;;;;;;;26.27;42.67;100464.40;124992;1102;102398;-79
2022/09/09 11:50:47;;;;;;;7.87;4.27;;;;;;;26.19;43.10;100460.15;124990;1102;104185;-79
2022/09/09 11:53:28;;;;;;;8.87;4.47;;;;;;;26.14;42.75;100459.38;125958;1099;104232;-79
2022/09/09 11:56:29;;;;;;;10.97;4.57;;;;;;;26.10;43.04;100462.20;125546;1099;104204;-79
2022/09/09 11:59:08;;;;;;;10.53;4.20;;;;;;;26.05;43.14;100462.34;124999;1102;104449;-79
2022/09/09 12:01:56;;;;;;;10.33;4.33;;;;;;;26.03;43.15;100449.89;125449;1102;102304;-78
2022/09/09 12:04:42;;;;;;;6.93;3.90;;;;;;;26.00;42.97;100448.16;125001;1099;104178;-76
2022/09/09 12:07:42;;;;;;;11.27;4.53;;;;;;;26.00;42.70;100451.72;124963;1099;104370;-77
2022/09/09 12:10:34;;;;;;;9.70;4.57;;;;;;;26.00;43.35;100450.84;125696;1099;102301;-79
2022/09/09 12:13:23;;;;;;;10.53;4.53;;;;;;;26.01;43.42;100442.73;126160;1098;102089;-79
2022/09/09 12:16:06;;;;;;;10.67;5.40;;;;;;;26.04;42.96;100448.94;125016;1102;104057;-79
2022/09/09 12:19:21;;;;;;;11.93;4.90;;;;;;;26.04;43.38;100446.25;125964;1099;102168;-79
2022/09/09 12:22:13;;;;;;;12.60;4.40;;;;;;;26.05;42.62;100439.95;125109;1099;104160;-80
2022/09/09 12:28:04;;;;;;;10.17;4.33;;;;;;;26.11;43.17;100437.95;125444;1099;102039;-80
2022/09/09 12:30:53;;;;;;;10.53;4.50;;;;;;;26.14;42.74;100427.11;127330;1098;102055;-80
2022/09/09 12:33:43;;;;;;;9.40;4.60;;;;;;;26.15;43.22;100431.58;126619;1098;102275;-80
2022/09/09 12:36:24;;;;;;;9.17;4.40;;;;;;;26.18;42.83;100427.92;127399;1098;103261;-80
2022/09/09 12:39:12;;;;;;;8.57;4.10;;;;;;;26.18;42.95;100420.73;127144;1098;101189;-80
2022/09/09 12:42:01;;;;;;;7.33;4.40;;;;;;;26.18;43.15;100420.73;127361;1098;101958;-80
2022/09/09 12:44:45;;;;;;;10.20;3.73;;;;;;;26.21;43.18;100417.08;126305;1099;101657;-81
2022/09/09 12:47:25;;;;;;;7.67;4.57;;;;;;;26.22;43.00;100420.63;126034;1099;104176;-80
2022/09/09 12:50:04;;;;;;;14.27;4.57;;;;;;;26.21;43.20;100422.45;125048;1103;103684;-79
2022/09/09 12:52:41;;;;;;;11.77;4.40;;;;;;;26.23;43.06;100425.09;124976;1099;104175;-79
2022/09/09 12:55:24;;;;;;;11.93;4.97;;;;;;;26.21;42.86;100417.08;125090;1099;104325;-80
2022/09/09 12:58:04;;;;;;;9.77;4.90;;;;;;;26.22;42.65;100421.50;125145;1099;104185;-80
2022/09/09 13:00:57;;;;;;;12.20;5.00;;;;;;;26.21;42.77;100424.23;126172;1099;102732;-79